Time;durP1;ratioP1;P1;durP2;ratioP2;P2;SDS_P1;SDS_P2;PMS_P1;PMS_P2;Temp;Humidity;BMP_temperature;BMP_pressure;BME280_temperature;BME280_humidity;BME280_pressure;Samples;Min_cycle;Max_cycle;Signal;HPM_P1;HPM_P2
2023/06/14 00:01:20;;;;;;;;;;;16.70;72.90;;;;;;4874432;29;19989;-84
2023/06/14 00:03:47;;;;;;;;;;;16.70;74.00;;;;;;4901591;29;19995;-85
2023/06/14 00:06:13;;;;;;;;;;;16.60;74.80;;;;;;4872195;29;19928;-85
2023/06/14 00:08:39;;;;;;;;;;;16.60;73.60;;;;;;4887143;29;19927;-84
2023/06/14 00:11:05;;;;;;;;;;;16.60;74.40;;;;;;4887663;29;20361;-85
2023/06/14 00:13:30;;;;;;;;;;;16.50;75.00;;;;;;4903077;29;19927;-85
2023/06/14 00:15:56;;;;;;;;;;;16.50;75.80;;;;;;4886033;29;20368;-86
2023/06/14 00:18:29;;;;;;;;;;;16.50;74.70;;;;;;4897162;29;19927;-85
2023/06/14 00:20:55;;;;;;;;;;;16.40;75.40;;;;;;4877316;29;20459;-85
2023/06/14 00:23:21;;;;;;;;;;;16.30;76.20;;;;;;4902824;29;19927;-83
2023/06/14 00:25:47;;;;;;;;;;;16.40;75.80;;;;;;4887280;29;20463;-84
2023/06/14 00:28:13;;;;;;;;;;;16.30;76.00;;;;;;4885662;29;19950;-84
2023/06/14 00:30:38;;;;;;;;;;;16.30;76.20;;;;;;4899694;29;20044;-85
2023/06/14 00:33:04;;;;;;;;;;;16.30;76.70;;;;;;4884603;29;19935;-86
2023/06/14 00:35:30;;;;;;;;;;;16.20;76.80;;;;;;4898211;29;19973;-84
2023/06/14 00:37:55;;;;;;;;;;;16.20;77.50;;;;;;4885280;29;20021;-85
2023/06/14 00:40:21;;;;;;;;;;;16.20;78.00;;;;;;4869776;29;19934;-84
2023/06/14 00:42:47;;;;;;;;;;;16.30;77.40;;;;;;4886706;29;19933;-84
2023/06/14 00:45:13;;;;;;;;;;;16.20;77.70;;;;;;4902261;29;19967;-85
2023/06/14 00:47:41;;;;;;;;;;;16.20;78.10;;;;;;4901104;29;20461;-85
2023/06/14 00:50:07;;;;;;;;;;;16.10;78.50;;;;;;4885194;29;20027;-83
2023/06/14 00:52:34;;;;;;;;;;;16.10;78.40;;;;;;4902105;29;20041;-85
2023/06/14 00:55:00;;;;;;;;;;;16.10;78.30;;;;;;4904444;29;20392;-84
2023/06/14 00:57:26;;;;;;;;;;;16.00;78.70;;;;;;4902323;29;19927;-85
2023/06/14 00:59:52;;;;;;;;;;;16.00;79.40;;;;;;4884078;29;19927;-85
2023/06/14 01:02:20;;;;;;;;;;;15.90;79.00;;;;;;4913608;29;20441;-85
2023/06/14 01:04:50;;;;;;;;;;;15.90;79.90;;;;;;4906674;29;19933;-84
2023/06/14 01:07:24;;;;;;;;;;;16.00;81.00;;;;;;4897442;29;19979;-85
2023/06/14 01:09:55;;;;;;;;;;;15.90;81.50;;;;;;4897873;29;19927;-84
2023/06/14 01:12:24;;;;;;;;;;;15.90;81.30;;;;;;4898519;29;19927;-85
2023/06/14 01:14:51;;;;;;;;;;;15.80;81.80;;;;;;4910134;29;19927;-83
2023/06/14 01:17:17;;;;;;;;;;;15.80;82.20;;;;;;4909812;29;20352;-85
2023/06/14 01:19:44;;;;;;;;;;;15.70;81.50;;;;;;4886395;29;19935;-84
2023/06/14 01:22:10;;;;;;;;;;;15.60;82.30;;;;;;4902580;29;20230;-86
2023/06/14 01:24:35;;;;;;;;;;;15.70;82.20;;;;;;4902914;29;19928;-85
2023/06/14 01:27:02;;;;;;;;;;;15.50;83.20;;;;;;4887638;29;20006;-84
2023/06/14 01:29:32;;;;;;;;;;;15.50;83.50;;;;;;4886493;29;19934;-85
2023/06/14 01:31:59;;;;;;;;;;;15.50;83.00;;;;;;4886358;29;20278;-84
2023/06/14 01:34:25;;;;;;;;;;;15.50;83.50;;;;;;4901363;29;19951;-85
2023/06/14 01:36:56;;;;;;;;;;;15.50;83.70;;;;;;4901097;29;19927;-84
2023/06/14 01:39:22;;;;;;;;;;;15.50;84.10;;;;;;4883989;29;19927;-84
2023/06/14 01:41:49;;;;;;;;;;;15.40;84.40;;;;;;4871957;29;20285;-85
2023/06/14 01:44:17;;;;;;;;;;;15.40;85.80;;;;;;4901770;29;19931;-85
2023/06/14 01:46:43;;;;;;;;;;;15.30;86.60;;;;;;4896345;29;19927;-84
2023/06/14 01:49:09;;;;;;;;;;;15.20;86.70;;;;;;4896527;29;19927;-84
2023/06/14 01:51:35;;;;;;;;;;;15.30;86.00;;;;;;4885240;29;19939;-84
2023/06/14 01:54:01;;;;;;;;;;;15.20;86.70;;;;;;4900337;29;19959;-84
2023/06/14 01:56:27;;;;;;;;;;;15.10;87.50;;;;;;4897699;29;19931;-84
2023/06/14 01:58:53;;;;;;;;;;;15.10;87.60;;;;;;4901548;29;20417;-85
2023/06/14 02:01:21;;;;;;;;;;;15.10;87.50;;;;;;4901346;29;20286;-84
2023/06/14 02:03:48;;;;;;;;;;;15.10;88.10;;;;;;4900445;29;20357;-84
2023/06/14 02:06:16;;;;;;;;;;;15.00;88.30;;;;;;4901263;29;19950;-84
2023/06/14 02:08:42;;;;;;;;;;;15.00;90.00;;;;;;4900652;29;20254;-84
2023/06/14 02:11:08;;;;;;;;;;;14.90;90.20;;;;;;4870149;29;19927;-84
2023/06/14 02:13:34;;;;;;;;;;;14.90;90.40;;;;;;4897718;29;19927;-84
2023/06/14 02:16:00;;;;;;;;;;;14.90;90.30;;;;;;4900215;29;20033;-85
2023/06/14 02:18:26;;;;;;;;;;;14.90;90.50;;;;;;4890089;29;19935;-84
2023/06/14 02:20:51;;;;;;;;;;;14.90;90.50;;;;;;4901109;29;19937;-84
2023/06/14 02:23:17;;;;;;;;;;;14.80;91.00;;;;;;4885443;29;19950;-84
2023/06/14 02:25:44;;;;;;;;;;;14.80;91.20;;;;;;4900641;29;19994;-84
2023/06/14 02:28:10;;;;;;;;;;;14.70;91.60;;;;;;4896533;29;19938;-85
2023/06/14 02:30:36;;;;;;;;;;;14.70;92.00;;;;;;4908610;29;19926;-86
2023/06/14 02:33:01;;;;;;;;;;;14.70;91.80;;;;;;4888242;29;19974;-85
2023/06/14 02:35:27;;;;;;;;;;;14.70;92.40;;;;;;4884733;29;19934;-84
2023/06/14 02:37:53;;;;;;;;;;;14.70;92.60;;;;;;4901909;29;19934;-84
2023/06/14 02:40:19;;;;;;;;;;;14.60;93.00;;;;;;4888929;29;19947;-83
2023/06/14 02:42:45;;;;;;;;;;;14.60;93.40;;;;;;4896373;29;19970;-84
2023/06/14 02:45:11;;;;;;;;;;;14.60;93.70;;;;;;4881758;29;19977;-85
2023/06/14 02:47:36;;;;;;;;;;;14.60;94.00;;;;;;4907018;29;19931;-85
2023/06/14 02:50:02;;;;;;;;;;;14.60;94.30;;;;;;4895306;29;19927;-84
2023/06/14 02:52:28;;;;;;;;;;;14.60;94.40;;;;;;4894402;29;20054;-85
2023/06/14 02:54:54;;;;;;;;;;;14.40;94.50;;;;;;4900091;29;20383;-84
2023/06/14 02:57:20;;;;;;;;;;;14.40;95.60;;;;;;4884820;29;19927;-85
2023/06/14 02:59:45;;;;;;;;;;;14.50;95.00;;;;;;4897698;29;20021;-85
2023/06/14 03:02:11;;;;;;;;;;;14.40;96.00;;;;;;4894034;29;20030;-84
2023/06/14 03:04:51;;;;;;;;;;;14.30;95.90;;;;;;4899794;29;19934;-85
2023/06/14 03:07:19;;;;;;;;;;;14.40;96.80;;;;;;4884435;29;19934;-86
2023/06/14 03:09:45;;;;;;;;;;;;;;;;;;4897330;29;19931;-85
2023/06/14 03:12:11;;;;;;;;;;;14.30;98.30;;;;;;4877326;29;19928;-85
2023/06/14 03:14:36;;;;;;;;;;;14.20;98.70;;;;;;4899714;29;19955;-85
2023/06/14 03:17:04;;;;;;;;;;;14.20;98.10;;;;;;4898701;29;20712;-85
2023/06/14 03:19:30;;;;;;;;;;;14.20;98.00;;;;;;4882792;29;19934;-85
2023/06/14 03:21:58;;;;;;;;;;;14.30;99.90;;;;;;4910683;29;19927;-85
2023/06/14 03:24:24;;;;;;;;;;;14.30;99.90;;;;;;4899828;29;20302;-85
2023/06/14 03:26:55;;;;;;;;;;;14.20;99.30;;;;;;4900158;29;19935;-86
2023/06/14 03:29:21;;;;;;;;;;;14.20;99.90;;;;;;4900112;29;19934;-85
2023/06/14 03:31:58;;;;;;;;;;;14.10;99.90;;;;;;4897875;29;19975;-85
2023/06/14 03:34:23;;;;;;;;;;;14.20;99.90;;;;;;4873313;29;19979;-85
2023/06/14 03:36:49;;;;;;;;;;;14.10;99.90;;;;;;4882331;29;19927;-86
2023/06/14 03:39:15;;;;;;;;;;;14.20;99.90;;;;;;4889377;29;19931;-85
2023/06/14 03:41:40;;;;;;;;;;;14.10;99.90;;;;;;4905199;29;20259;-86
2023/06/14 03:44:06;;;;;;;;;;;14.10;99.90;;;;;;4880887;29;19931;-85
2023/06/14 03:46:31;;;;;;;;;;;14.10;99.90;;;;;;4896151;29;19927;-85
2023/06/14 03:48:57;;;;;;;;;;;14.00;99.90;;;;;;4880275;29;19934;-85
2023/06/14 03:51:25;;;;;;;;;;;14.20;99.90;;;;;;4892295;29;20059;-85
2023/06/14 03:53:50;;;;;;;;;;;14.30;99.90;;;;;;4899600;29;20412;-85
2023/06/14 03:56:16;;;;;;;;;;;14.50;99.90;;;;;;4897196;29;19975;-85
2023/06/14 03:58:41;;;;;;;;;;;14.50;99.90;;;;;;4896809;29;19927;-85
2023/06/14 04:01:07;;;;;;;;;;;14.50;99.90;;;;;;4896522;29;19927;-85
2023/06/14 04:03:33;;;;;;;;;;;14.50;99.90;;;;;;4895927;29;19934;-85
2023/06/14 04:05:59;;;;;;;;;;;14.50;99.90;;;;;;4881211;29;20055;-85
2023/06/14 04:08:25;;;;;;;;;;;14.60;99.90;;;;;;4880559;29;20283;-85
2023/06/14 04:10:51;;;;;;;;;;;14.60;99.90;;;;;;4881260;29;19928;-85
2023/06/14 04:13:17;;;;;;;;;;;14.70;99.90;;;;;;4892636;29;19927;-86
2023/06/14 04:15:43;;;;;;;;;;;14.70;99.90;;;;;;4879996;29;20026;-86
2023/06/14 04:18:10;;;;;;;;;;;14.70;99.90;;;;;;4880503;29;19935;-85
2023/06/14 04:20:36;;;;;;;;;;;14.70;99.90;;;;;;4865787;29;19979;-86
2023/06/14 04:23:15;;;;;;;;;;;14.70;99.90;;;;;;4871288;29;19931;-86
2023/06/14 04:25:40;;;;;;;;;;;14.70;99.90;;;;;;4880618;29;20600;-87
2023/06/14 04:28:08;;;;;;;;;;;14.80;99.90;;;;;;4894297;29;19936;-85
2023/06/14 04:30:35;;;;;;;;;;;14.90;99.90;;;;;;4897040;29;19975;-87
2023/06/14 04:33:05;;;;;;;;;;;15.00;99.90;;;;;;4883173;29;19951;-90
2023/06/14 04:35:35;;;;;;;;;;;14.90;99.90;;;;;;4904372;29;19953;-86
2023/06/14 04:38:04;;;;;;;;;;;14.90;99.90;;;;;;4882894;29;19974;-86
2023/06/14 04:40:30;;;;;;;;;;;14.90;99.90;;;;;;4890431;29;20295;-86
2023/06/14 04:42:57;;;;;;;;;;;15.00;99.90;;;;;;4883790;29;19927;-87
2023/06/14 04:45:23;;;;;;;;;;;15.10;99.90;;;;;;4877341;29;19934;-88
2023/06/14 04:47:50;;;;;;;;;;;15.00;99.90;;;;;;4887200;29;19935;-88
2023/06/14 04:50:18;;;;;;;;;;;15.00;99.90;;;;;;4885884;29;19982;-86
2023/06/14 04:52:43;;;;;;;;;;;15.00;99.90;;;;;;4883655;29;19983;-86
2023/06/14 04:55:09;;;;;;;;;;;15.10;99.90;;;;;;4899539;29;19931;-86
2023/06/14 04:57:35;;;;;;;;;;;15.10;99.90;;;;;;4866853;29;20341;-86
2023/06/14 05:00:04;;;;;;;;;;;15.10;99.90;;;;;;4869399;29;19979;-87
2023/06/14 05:02:30;;;;;;;;;;;15.20;99.90;;;;;;4891897;29;19927;-86
2023/06/14 05:04:57;;;;;;;;;;;15.20;99.90;;;;;;4885292;29;20335;-86
2023/06/14 05:07:23;;;;;;;;;;;15.10;99.90;;;;;;4896338;29;19935;-88
2023/06/14 05:09:49;;;;;;;;;;;15.10;99.90;;;;;;4898313;29;19936;-87
2023/06/14 05:12:18;;;;;;;;;;;15.10;99.90;;;;;;4867938;29;19938;-85
2023/06/14 05:14:44;;;;;;;;;;;15.10;99.90;;;;;;4882303;29;19955;-89
2023/06/14 05:17:10;;;;;;;;;;;15.20;99.90;;;;;;4896934;29;19928;-86
2023/06/14 05:19:35;;;;;;;;;;;15.20;99.90;;;;;;4881474;29;19931;-87
2023/06/14 05:22:02;;;;;;;;;;;15.20;99.90;;;;;;4885543;29;19950;-85
2023/06/14 05:24:30;;;;;;;;;;;15.30;99.90;;;;;;4895129;29;19980;-86
2023/06/14 05:26:56;;;;;;;;;;;15.30;99.90;;;;;;4878025;29;19933;-86
2023/06/14 05:29:21;;;;;;;;;;;15.40;99.90;;;;;;4900509;29;20006;-85
2023/06/14 05:31:47;;;;;;;;;;;15.50;99.90;;;;;;4903956;29;20333;-86
2023/06/14 05:34:13;;;;;;;;;;;15.50;99.90;;;;;;4883815;29;20281;-86
2023/06/14 05:36:38;;;;;;;;;;;15.60;99.90;;;;;;4898672;29;20382;-86
2023/06/14 05:39:05;;;;;;;;;;;15.70;99.90;;;;;;4901827;29;20047;-86
2023/06/14 05:41:31;;;;;;;;;;;15.80;99.90;;;;;;4884863;29;21078;-86
2023/06/14 05:43:56;;;;;;;;;;;15.80;99.90;;;;;;4888674;29;19978;-86
2023/06/14 05:46:25;;;;;;;;;;;16.00;99.90;;;;;;4889211;29;19927;-87
2023/06/14 05:48:51;;;;;;;;;;;16.00;99.90;;;;;;4881778;29;19955;-86
2023/06/14 05:51:19;;;;;;;;;;;16.10;99.90;;;;;;4877757;29;19932;-85
2023/06/14 05:53:47;;;;;;;;;;;16.20;99.90;;;;;;4876427;29;19928;-85
2023/06/14 05:56:13;;;;;;;;;;;16.20;99.90;;;;;;4899546;29;19927;-85
2023/06/14 05:58:39;;;;;;;;;;;16.20;99.90;;;;;;4869830;29;20294;-86
2023/06/14 06:01:06;;;;;;;;;;;16.30;99.90;;;;;;4881623;29;19932;-86
2023/06/14 06:03:32;;;;;;;;;;;16.30;99.90;;;;;;4888427;29;19934;-85
2023/06/14 06:05:58;;;;;;;;;;;16.40;99.90;;;;;;4896653;29;19932;-85
2023/06/14 06:08:26;;;;;;;;;;;16.40;99.90;;;;;;4888977;29;20067;-86
2023/06/14 06:10:51;;;;;;;;;;;16.40;99.90;;;;;;4887321;29;19927;-85
2023/06/14 06:13:17;;;;;;;;;;;16.50;99.90;;;;;;4901293;29;19935;-86
2023/06/14 06:15:43;;;;;;;;;;;16.60;99.90;;;;;;4904260;29;19928;-84
2023/06/14 06:18:08;;;;;;;;;;;16.70;99.90;;;;;;4896528;29;19940;-87
2023/06/14 06:20:34;;;;;;;;;;;16.80;99.70;;;;;;4901198;29;19927;-86
2023/06/14 06:23:00;;;;;;;;;;;16.80;99.80;;;;;;4884133;29;20314;-85
2023/06/14 06:25:26;;;;;;;;;;;16.90;99.90;;;;;;4898653;29;19938;-84
2023/06/14 06:27:52;;;;;;;;;;;17.00;99.40;;;;;;4904286;29;20031;-85
2023/06/14 06:30:18;;;;;;;;;;;17.00;98.70;;;;;;4885201;29;20027;-85
2023/06/14 06:32:44;;;;;;;;;;;17.00;98.70;;;;;;4888169;29;19927;-85
2023/06/14 06:35:10;;;;;;;;;;;17.10;99.00;;;;;;4869201;29;19928;-85
2023/06/14 06:37:36;;;;;;;;;;;17.20;98.90;;;;;;4887865;29;19935;-86
2023/06/14 06:40:04;;;;;;;;;;;17.30;98.70;;;;;;4893981;29;20290;-85
2023/06/14 06:42:30;;;;;;;;;;;17.40;98.60;;;;;;4864513;29;19936;-87
2023/06/14 06:44:56;;;;;;;;;;;17.50;97.70;;;;;;4878184;29;19966;-87
2023/06/14 06:47:21;;;;;;;;;;;17.50;97.60;;;;;;4897376;29;19931;-86
2023/06/14 06:49:47;;;;;;;;;;;17.60;97.60;;;;;;4876527;29;19927;-85
2023/06/14 06:52:13;;;;;;;;;;;17.60;97.20;;;;;;4891809;29;19928;-85
2023/06/14 06:54:39;;;;;;;;;;;17.70;97.40;;;;;;4917061;29;19915;-95
2023/06/14 06:57:06;;;;;;;;;;;17.70;96.70;;;;;;4916770;29;19987;-87
2023/06/14 06:59:32;;;;;;;;;;;17.90;96.70;;;;;;4920444;29;19916;-86
2023/06/14 07:01:57;;;;;;;;;;;17.90;96.20;;;;;;4904499;29;20329;-87
2023/06/14 07:04:23;;;;;;;;;;;18.00;96.30;;;;;;4906967;29;20019;-86
2023/06/14 07:06:49;;;;;;;;;;;18.00;96.10;;;;;;4900533;29;20025;-85
2023/06/14 07:09:15;;;;;;;;;;;18.00;96.50;;;;;;4905349;29;19953;-87
2023/06/14 07:11:42;;;;;;;;;;;18.10;96.10;;;;;;4890764;29;19928;-85
2023/06/14 07:14:08;;;;;;;;;;;18.20;95.50;;;;;;4883169;29;19928;-82
2023/06/14 07:16:33;;;;;;;;;;;18.20;95.50;;;;;;4877999;29;19935;-85
2023/06/14 07:19:00;;;;;;;;;;;18.30;95.00;;;;;;4893497;29;20393;-84
2023/06/14 07:21:26;;;;;;;;;;;18.40;94.80;;;;;;4896022;29;19972;-84
2023/06/14 07:23:52;;;;;;;;;;;18.40;95.10;;;;;;4896088;29;20025;-85
2023/06/14 07:26:18;;;;;;;;;;;18.50;94.40;;;;;;4884835;29;20395;-86
2023/06/14 07:28:47;;;;;;;;;;;18.50;94.20;;;;;;4895157;29;19967;-86
2023/06/14 07:31:13;;;;;;;;;;;18.60;93.80;;;;;;4870218;29;19938;-85
2023/06/14 07:33:39;;;;;;;;;;;18.60;93.70;;;;;;4879342;29;19927;-83
2023/06/14 07:36:05;;;;;;;;;;;18.70;93.60;;;;;;4895968;29;20672;-84
2023/06/14 07:38:30;;;;;;;;;;;18.70;93.70;;;;;;4883907;29;19927;-84
2023/06/14 07:40:56;;;;;;;;;;;18.80;93.40;;;;;;4875157;29;19927;-84
2023/06/14 07:43:22;;;;;;;;;;;18.90;93.40;;;;;;4892433;29;19927;-85
2023/06/14 07:45:47;;;;;;;;;;;19.00;93.10;;;;;;4866467;29;20370;-84
2023/06/14 07:48:13;;;;;;;;;;;19.00;92.90;;;;;;4890815;29;19935;-84
2023/06/14 07:50:38;;;;;;;;;;;19.10;92.80;;;;;;4898513;29;20373;-84
2023/06/14 07:53:04;;;;;;;;;;;19.20;92.90;;;;;;4898363;29;19931;-84
2023/06/14 07:55:32;;;;;;;;;;;19.30;92.50;;;;;;4898229;29;19942;-85
2023/06/14 07:57:58;;;;;;;;;;;19.30;92.00;;;;;;4873768;29;19927;-85
2023/06/14 08:00:24;;;;;;;;;;;19.40;92.30;;;;;;4880469;29;20021;-84
2023/06/14 08:02:51;;;;;;;;;;;19.40;91.90;;;;;;4897699;29;20373;-84
2023/06/14 08:05:17;;;;;;;;;;;19.60;91.50;;;;;;4898218;29;19928;-85
2023/06/14 08:07:43;;;;;;;;;;;19.60;91.40;;;;;;4901335;29;19927;-84
2023/06/14 08:10:09;;;;;;;;;;;19.70;90.70;;;;;;4870294;29;19927;-84
2023/06/14 08:12:34;;;;;;;;;;;19.70;90.60;;;;;;4884670;29;19978;-83
2023/06/14 08:15:00;;;;;;;;;;;19.70;89.00;;;;;;4885360;29;19986;-86
2023/06/14 08:17:26;;;;;;;;;;;19.80;90.00;;;;;;4885002;29;19931;-83
2023/06/14 08:19:54;;;;;;;;;;;19.90;90.10;;;;;;4898910;29;19927;-83
2023/06/14 08:22:21;;;;;;;;;;;19.90;87.80;;;;;;4901724;29;19927;-84
2023/06/14 08:24:47;;;;;;;;;;;20.00;88.70;;;;;;4901334;29;20021;-84
2023/06/14 08:27:13;;;;;;;;;;;20.10;88.70;;;;;;4884522;29;20010;-83
2023/06/14 08:29:40;;;;;;;;;;;20.10;86.20;;;;;;4901154;29;19934;-83
2023/06/14 08:32:09;;;;;;;;;;;20.10;85.80;;;;;;4889276;29;19927;-83
2023/06/14 08:34:34;;;;;;;;;;;20.20;85.20;;;;;;4885071;29;20244;-84
2023/06/14 08:37:00;;;;;;;;;;;20.40;84.30;;;;;;4900918;29;19955;-83
2023/06/14 08:39:26;;;;;;;;;;;20.40;85.60;;;;;;4885317;29;19935;-84
2023/06/14 08:41:52;;;;;;;;;;;20.40;83.00;;;;;;4881719;29;19927;-83
2023/06/14 08:44:17;;;;;;;;;;;20.40;83.00;;;;;;4901047;29;19931;-83
2023/06/14 08:46:43;;;;;;;;;;;20.40;82.40;;;;;;4902637;29;20288;-83
2023/06/14 08:49:12;;;;;;;;;;;20.60;83.10;;;;;;4907637;29;19927;-83
2023/06/14 08:51:38;;;;;;;;;;;20.60;83.30;;;;;;4894713;29;19966;-84
2023/06/14 08:54:04;;;;;;;;;;;20.70;82.00;;;;;;4884869;29;20571;-84
2023/06/14 08:56:30;;;;;;;;;;;20.80;81.70;;;;;;4916399;29;19984;-85
2023/06/14 08:58:57;;;;;;;;;;;20.80;82.60;;;;;;4891145;29;19935;-85
2023/06/14 09:01:23;;;;;;;;;;;20.90;82.00;;;;;;4907994;29;19970;-85
2023/06/14 09:03:50;;;;;;;;;;;21.00;81.30;;;;;;4888760;29;19969;-84
2023/06/14 09:06:15;;;;;;;;;;;21.00;80.20;;;;;;4905575;29;19938;-84
2023/06/14 09:08:45;;;;;;;;;;;21.10;80.70;;;;;;4895664;29;19927;-85
2023/06/14 09:11:12;;;;;;;;;;;21.10;80.10;;;;;;4892587;29;19927;-84
2023/06/14 09:13:38;;;;;;;;;;;21.20;80.60;;;;;;4894063;29;19973;-83
2023/06/14 09:16:03;;;;;;;;;;;21.30;79.20;;;;;;4906298;29;19928;-83
2023/06/14 09:18:34;;;;;;;;;;;21.30;79.40;;;;;;4887785;29;20274;-84
2023/06/14 09:21:00;;;;;;;;;;;21.40;78.60;;;;;;4883547;29;19927;-84
2023/06/14 09:23:25;;;;;;;;;;;21.50;79.40;;;;;;4881511;29;19938;-83
2023/06/14 09:25:51;;;;;;;;;;;21.50;79.20;;;;;;4879569;29;19950;-83
2023/06/14 09:28:17;;;;;;;;;;;21.60;76.30;;;;;;4881328;29;19950;-83
2023/06/14 09:30:42;;;;;;;;;;;21.60;76.80;;;;;;4882222;29;19930;-83
2023/06/14 09:33:08;;;;;;;;;;;21.70;77.00;;;;;;4892103;29;19931;-84
2023/06/14 09:35:34;;;;;;;;;;;21.60;76.20;;;;;;4909395;29;19931;-84
2023/06/14 09:38:00;;;;;;;;;;;21.70;77.20;;;;;;4905493;29;19934;-83
2023/06/14 09:40:26;;;;;;;;;;;21.80;76.40;;;;;;4884835;29;19937;-84
2023/06/14 09:42:52;;;;;;;;;;;21.90;77.40;;;;;;4886089;29;20394;-84
2023/06/14 09:45:21;;;;;;;;;;;22.00;77.90;;;;;;4876227;29;19933;-85
2023/06/14 09:47:51;;;;;;;;;;;22.00;76.20;;;;;;4889162;29;19933;-85
2023/06/14 09:50:17;;;;;;;;;;;22.10;77.10;;;;;;4898241;29;19935;-84
2023/06/14 09:52:44;;;;;;;;;;;22.30;77.20;;;;;;4913534;29;19934;-83
2023/06/14 09:55:12;;;;;;;;;;;22.30;75.50;;;;;;4895232;29;19958;-83
2023/06/14 09:57:40;;;;;;;;;;;22.20;76.00;;;;;;4899600;29;19928;-84
2023/06/14 10:00:10;;;;;;;;;;;22.20;76.10;;;;;;4882928;29;19936;-84
2023/06/14 10:02:37;;;;;;;;;;;22.30;76.30;;;;;;4898975;29;20357;-84
2023/06/14 10:05:05;;;;;;;;;;;22.40;73.70;;;;;;4883869;29;19927;-84
2023/06/14 10:07:34;;;;;;;;;;;22.40;73.80;;;;;;4882784;29;19927;-83
2023/06/14 10:10:01;;;;;;;;;;;22.40;73.60;;;;;;4907182;29;20270;-82
2023/06/14 10:12:27;;;;;;;;;;;22.50;74.10;;;;;;4876949;29;19981;-85
2023/06/14 10:14:55;;;;;;;;;;;22.50;74.80;;;;;;4908002;29;19926;-83
2023/06/14 10:17:41;;;;;;;;;;;22.60;74.80;;;;;;4888851;29;19938;-84
2023/06/14 10:20:14;;;;;;;;;;;22.60;72.80;;;;;;4904744;29;19927;-81
2023/06/14 10:22:49;;;;;;;;;;;22.80;73.60;;;;;;4921383;29;19931;-84
2023/06/14 10:25:30;;;;;;;;;;;22.90;74.10;;;;;;4898876;29;19931;-85
2023/06/14 10:28:08;;;;;;;;;;;22.90;72.40;;;;;;4899779;29;19938;-84
2023/06/14 10:30:33;;;;;;;;;;;22.90;73.00;;;;;;4886875;29;20002;-82
2023/06/14 10:33:07;;;;;;;;;;;22.90;71.50;;;;;;4883609;29;20015;-82
2023/06/14 10:35:32;;;;;;;;;;;23.00;71.10;;;;;;4901122;29;19927;-83
2023/06/14 10:38:11;;;;;;;;;;;23.00;71.40;;;;;;4899294;29;20357;-83
2023/06/14 10:40:37;;;;;;;;;;;22.90;70.30;;;;;;4894310;29;19961;-84
2023/06/14 10:43:20;;;;;;;;;;;22.90;70.50;;;;;;4899426;29;19998;-85
2023/06/14 10:46:16;;;;;;;;;;;23.10;69.20;;;;;;4890805;29;20285;-84
2023/06/14 10:48:42;;;;;;;;;;;23.10;68.90;;;;;;4872363;29;20091;-83
2023/06/14 10:51:20;;;;;;;;;;;23.10;69.40;;;;;;4907262;29;19927;-84
2023/06/14 10:53:47;;;;;;;;;;;23.30;69.20;;;;;;4881043;29;19931;-83
2023/06/14 10:56:24;;;;;;;;;;;23.40;69.10;;;;;;4892716;29;19954;-84
2023/06/14 10:58:50;;;;;;;;;;;23.40;69.80;;;;;;4893358;29;20373;-83
2023/06/14 11:01:17;;;;;;;;;;;23.40;68.50;;;;;;4900058;29;19974;-83
2023/06/14 11:03:50;;;;;;;;;;;23.60;69.60;;;;;;4899174;29;20374;-84
2023/06/14 11:06:17;;;;;;;;;;;23.60;69.90;;;;;;4900538;29;19938;-83
2023/06/14 11:08:48;;;;;;;;;;;23.60;68.30;;;;;;4892012;29;19967;-86
2023/06/14 11:11:14;;;;;;;;;;;23.50;68.80;;;;;;4882076;29;19927;-84
2023/06/14 11:13:44;;;;;;;;;;;23.60;69.50;;;;;;4898237;29;19927;-84
2023/06/14 11:16:10;;;;;;;;;;;23.80;70.40;;;;;;4897897;29;20033;-84
2023/06/14 11:18:36;;;;;;;;;;;23.80;68.10;;;;;;4896839;29;19927;-84
2023/06/14 11:21:04;;;;;;;;;;;23.90;67.20;;;;;;4881145;29;19998;-85
2023/06/14 11:23:30;;;;;;;;;;;24.10;67.70;;;;;;4878052;29;19935;-85
2023/06/14 11:25:55;;;;;;;;;;;24.10;66.90;;;;;;4878606;29;19934;-84
2023/06/14 11:28:22;;;;;;;;;;;24.20;65.60;;;;;;4890528;29;19947;-84
2023/06/14 11:30:48;;;;;;;;;;;24.10;65.80;;;;;;4904712;29;19927;-84
2023/06/14 11:33:18;;;;;;;;;;;24.20;66.20;;;;;;4884950;29;20013;-83
2023/06/14 11:35:45;;;;;;;;;;;24.20;66.70;;;;;;4880013;29;19990;-84
2023/06/14 11:38:11;;;;;;;;;;;24.20;66.40;;;;;;4888032;29;20381;-84
2023/06/14 11:40:38;;;;;;;;;;;24.30;65.60;;;;;;4887282;29;19958;-83
2023/06/14 11:43:04;;;;;;;;;;;24.30;64.80;;;;;;4902052;29;20021;-84
2023/06/14 11:45:30;;;;;;;;;;;24.50;63.50;;;;;;4886608;29;19978;-83
2023/06/14 11:47:56;;;;;;;;;;;24.40;63.70;;;;;;4902664;29;20395;-84
2023/06/14 11:50:22;;;;;;;;;;;24.30;64.60;;;;;;4907857;29;20358;-84
2023/06/14 11:52:59;;;;;;;;;;;24.40;64.70;;;;;;4892678;29;19934;-83
2023/06/14 11:55:25;;;;;;;;;;;24.60;64.00;;;;;;4894330;29;20393;-84
2023/06/14 11:57:52;;;;;;;;;;;24.70;63.80;;;;;;4902563;29;19927;-85
2023/06/14 12:00:17;;;;;;;;;;;24.70;64.20;;;;;;4907107;29;20274;-83
2023/06/14 12:02:51;;;;;;;;;;;24.70;62.90;;;;;;4900982;29;20008;-84
2023/06/14 12:05:21;;;;;;;;;;;24.70;63.20;;;;;;4901731;29;19978;-84
2023/06/14 12:07:46;;;;;;;;;;;24.60;63.70;;;;;;4900997;29;19930;-85
2023/06/14 12:10:14;;;;;;;;;;;24.60;63.90;;;;;;4889261;29;19927;-85
2023/06/14 12:12:40;;;;;;;;;;;24.80;64.20;;;;;;4887038;29;19934;-85
2023/06/14 12:15:07;;;;;;;;;;;24.80;65.20;;;;;;4883456;29;19927;-86
2023/06/14 12:17:41;;;;;;;;;;;24.70;63.20;;;;;;4898283;29;19939;-84
2023/06/14 12:20:19;;;;;;;;;;;24.80;63.00;;;;;;4901060;29;19931;-83
2023/06/14 12:22:56;;;;;;;;;;;25.00;62.60;;;;;;4885634;29;20238;-85
2023/06/14 12:25:26;;;;;;;;;;;24.90;62.00;;;;;;4886448;29;20018;-84
2023/06/14 12:27:53;;;;;;;;;;;25.00;62.80;;;;;;4889587;29;19975;-84
2023/06/14 12:30:19;;;;;;;;;;;25.10;62.80;;;;;;4878552;29;20014;-86
2023/06/14 12:32:45;;;;;;;;;;;25.00;63.30;;;;;;4884787;29;20021;-83
2023/06/14 12:35:11;;;;;;;;;;;25.20;62.60;;;;;;4896769;29;20297;-85
2023/06/14 12:37:36;;;;;;;;;;;25.20;62.20;;;;;;4900864;29;19946;-86
2023/06/14 12:40:06;;;;;;;;;;;25.20;63.20;;;;;;4885610;29;19927;-85
2023/06/14 12:42:33;;;;;;;;;;;25.40;63.80;;;;;;4905506;29;19978;-84
2023/06/14 12:45:02;;;;;;;;;;;25.50;62.70;;;;;;4894642;29;19927;-84
2023/06/14 12:47:28;;;;;;;;;;;25.60;62.40;;;;;;4898917;29;20357;-85
2023/06/14 12:49:53;;;;;;;;;;;25.70;62.00;;;;;;4891074;29;19973;-86
2023/06/14 12:52:19;;;;;;;;;;;25.40;61.50;;;;;;4910217;29;19935;-85
2023/06/14 12:54:50;;;;;;;;;;;25.40;61.60;;;;;;4910264;29;19935;-85
2023/06/14 12:57:15;;;;;;;;;;;25.60;61.60;;;;;;4903494;29;20039;-85
2023/06/14 12:59:43;;;;;;;;;;;25.60;61.50;;;;;;4898169;29;20391;-85
2023/06/14 13:02:16;;;;;;;;;;;25.70;61.40;;;;;;4885238;29;19931;-86
2023/06/14 13:04:42;;;;;;;;;;;26.10;62.50;;;;;;4891973;29;20002;-84
2023/06/14 13:07:10;;;;;;;;;;;26.10;61.00;;;;;;4900282;29;19927;-85
2023/06/14 13:09:36;;;;;;;;;;;26.20;60.70;;;;;;4870098;29;19959;-85
2023/06/14 13:12:02;;;;;;;;;;;26.40;60.80;;;;;;4869726;29;19927;-85
2023/06/14 13:14:27;;;;;;;;;;;26.40;59.00;;;;;;4883533;29;19932;-85
2023/06/14 13:16:53;;;;;;;;;;;26.20;59.40;;;;;;4885066;29;19927;-85
2023/06/14 13:19:19;;;;;;;;;;;26.20;59.60;;;;;;4869345;29;19943;-86
2023/06/14 13:21:47;;;;;;;;;;;26.00;59.50;;;;;;4900323;29;19966;-84
2023/06/14 13:24:13;;;;;;;;;;;26.00;59.60;;;;;;4907133;29;19927;-86
2023/06/14 13:26:39;;;;;;;;;;;26.10;59.70;;;;;;4884466;29;19927;-87
2023/06/14 13:29:07;;;;;;;;;;;26.20;61.10;;;;;;4888152;29;19953;-86
2023/06/14 13:31:33;;;;;;;;;;;26.10;60.00;;;;;;4885963;29;19927;-86
2023/06/14 13:34:01;;;;;;;;;;;26.30;61.10;;;;;;4901084;29;19938;-86
2023/06/14 13:36:26;;;;;;;;;;;26.20;60.30;;;;;;4915335;29;19931;-85
2023/06/14 13:38:52;;;;;;;;;;;26.40;59.00;;;;;;4908070;29;20016;-86
2023/06/14 13:41:18;;;;;;;;;;;26.40;58.70;;;;;;4885361;29;19935;-84
2023/06/14 13:43:44;;;;;;;;;;;26.10;59.80;;;;;;4881226;29;19927;-84
2023/06/14 13:46:09;;;;;;;;;;;26.20;59.00;;;;;;4897468;29;19931;-84
2023/06/14 13:48:35;;;;;;;;;;;26.10;58.40;;;;;;4881764;29;19971;-84
2023/06/14 13:51:01;;;;;;;;;;;26.10;58.80;;;;;;4882247;29;19931;-85
2023/06/14 13:53:32;;;;;;;;;;;26.00;59.50;;;;;;4877997;29;19933;-84
2023/06/14 13:55:57;;;;;;;;;;;25.90;60.50;;;;;;4903951;29;19927;-84
2023/06/14 13:58:24;;;;;;;;;;;25.90;59.10;;;;;;4905859;29;19937;-86
2023/06/14 14:00:50;;;;;;;;;;;25.90;59.30;;;;;;4890936;29;19928;-85
2023/06/14 14:03:15;;;;;;;;;;;26.10;59.20;;;;;;4874681;29;19946;-83
2023/06/14 14:05:41;;;;;;;;;;;26.30;59.30;;;;;;4889302;29;19927;-85
2023/06/14 14:08:07;;;;;;;;;;;26.50;60.90;;;;;;4883036;29;19931;-85
2023/06/14 14:10:33;;;;;;;;;;;26.80;57.90;;;;;;4875490;29;19932;-84
2023/06/14 14:12:59;;;;;;;;;;;26.80;58.30;;;;;;4880835;29;19928;-85
2023/06/14 14:15:25;;;;;;;;;;;26.80;58.20;;;;;;4875799;29;19931;-85
2023/06/14 14:17:51;;;;;;;;;;;26.90;59.00;;;;;;4870965;29;19934;-83